Disclaimer

Please do not use the information listed here in-flight or in-navigation, as they are not provided to us by the airports but are provided by volunteers, so they might be outdated.

Search


Regions


Airport information page

Radio informations:
ULAN UDE METEO - 126.6 MHz
ULAN UDE KRUG - 120.6 MHz
ULAN UDE APP - 129.3 MHz

Airport informations:
Latitude: 51° 48' 27.95" N
Longitude: 107° 26' 15.52" E
Elevation: 1690 feet - 515 meters
Operating hours: 24 hour operations
Operating agency: Civil government, landing fees and diplomatic clearance may be required
Timezone: UTC+8(+9DT) - Last Sunday in March to last Sunday in October
Fuel: Jet A1, without icing nhibitor.

Runway information:
08/26 - 9833 x 148 feet< - >2997 x 45 meters
08L/26R - 6700 x 340 feet< - >2042 x 104 meters
14/32 - 4630 x 315 feet< - >1411 x 96 meters

Recent METARs:
UIUU 211000Z 26001MPS 9999 FEW040 M13/M16 Q1024 R26/810555 NOSIG RMK QFE723/0965
UIUU 211030Z VRB01MPS 9999 FEW040 M14/M16 Q1024 R26/810555 NOSIG RMK QFE723/0965
UIUU 211100Z 29002MPS 5000 BR SCT040 M16/M18 Q1024 R26/810555 NOSIG RMK QFE723/0965

Airport on the map: